createdAt,value
2018-05-18T00:01:21.274Z,99921.84
2018-05-18T00:03:51.988Z,99924.93
2018-05-18T00:06:22.879Z,99927.38
2018-05-18T00:08:55.702Z,99923.77
2018-05-18T00:11:25.566Z,99922.85
2018-05-18T00:13:56.346Z,99922.73
2018-05-18T00:16:25.502Z,99928.87
2018-05-18T00:18:54.562Z,99931.20
2018-05-18T00:21:23.516Z,99928.00
2018-05-18T00:23:52.570Z,99934.78
2018-05-18T00:26:21.560Z,99930.80
2018-05-18T00:28:50.537Z,99931.44
2018-05-18T00:31:19.544Z,99932.71
2018-05-18T00:33:48.522Z,99929.04
2018-05-18T00:36:17.503Z,99936.48
2018-05-18T00:38:46.567Z,99938.82
2018-05-18T00:41:15.800Z,99938.80
2018-05-18T00:43:45.054Z,99931.87
2018-05-18T00:46:14.194Z,99939.83
2018-05-18T00:48:43.443Z,99939.34
2018-05-18T00:51:12.545Z,99942.11
2018-05-18T00:53:41.880Z,99944.80
2018-05-18T00:56:11.166Z,99948.83
2018-05-18T00:58:40.429Z,99948.89
2018-05-18T01:01:09.472Z,99940.32
2018-05-18T01:03:38.671Z,99941.20
2018-05-18T01:06:07.698Z,99941.13
2018-05-18T01:08:37.823Z,99946.65
2018-05-18T01:11:06.918Z,99945.55
2018-05-18T01:13:35.933Z,99940.13
2018-05-18T01:16:04.918Z,99944.96
2018-05-18T01:18:33.573Z,99946.55
2018-05-18T01:21:02.619Z,99939.15
2018-05-18T01:23:31.808Z,99938.30
2018-05-18T01:26:00.751Z,99945.06
2018-05-18T01:28:29.774Z,99944.83
2018-05-18T01:30:58.746Z,99944.66
2018-05-18T01:33:27.687Z,99940.51
2018-05-18T01:35:57.100Z,99943.98
2018-05-18T01:38:26.066Z,99948.27
2018-05-18T01:40:55.046Z,99950.25
2018-05-18T01:43:24.098Z,99946.59
2018-05-18T01:45:53.403Z,99953.30
2018-05-18T01:48:22.418Z,99955.16
2018-05-18T01:50:51.493Z,99958.76
2018-05-18T01:53:20.418Z,99953.95
2018-05-18T01:55:49.498Z,99954.30
2018-05-18T01:58:18.870Z,99958.36
2018-05-18T02:00:47.819Z,99959.72
2018-05-18T02:03:17.301Z,99951.38
2018-05-18T02:05:46.599Z,99951.53
2018-05-18T02:08:15.842Z,99957.28
2018-05-18T02:10:44.798Z,99957.20
2018-05-18T02:13:13.810Z,99964.27
2018-05-18T02:15:43.444Z,99963.12
2018-05-18T02:18:12.426Z,99971.02
2018-05-18T02:20:41.512Z,99972.00
2018-05-18T02:23:10.527Z,99975.36
2018-05-18T02:25:39.477Z,99977.70
2018-05-18T02:28:08.468Z,99980.59
2018-05-18T02:30:37.447Z,99984.05
2018-05-18T02:33:06.611Z,99980.12
2018-05-18T02:35:35.670Z,99982.95
2018-05-18T02:38:04.774Z,99986.42
2018-05-18T02:40:33.743Z,99986.50
2018-05-18T02:43:03.187Z,99986.70
2018-05-18T02:45:32.209Z,99992.44
2018-05-18T02:48:01.208Z,99990.95
2018-05-18T02:50:30.292Z,99992.53
2018-05-18T02:53:01.006Z,100000.01
2018-05-18T02:55:30.314Z,99999.38
2018-05-18T02:57:59.281Z,100001.09
2018-05-18T03:00:28.270Z,100007.09
2018-05-18T03:02:57.352Z,100011.86
2018-05-18T03:05:26.582Z,100020.00
2018-05-18T03:07:55.608Z,100017.03
2018-05-18T03:10:24.771Z,100020.23
2018-05-18T03:12:53.716Z,100026.38
2018-05-18T03:15:22.702Z,100026.13
2018-05-18T03:17:51.800Z,100034.31
2018-05-18T03:20:21.072Z,100026.67
2018-05-18T03:22:50.023Z,100032.58
2018-05-18T03:25:19.369Z,100041.67
2018-05-18T03:27:48.330Z,100043.67
2018-05-18T03:30:17.973Z,100043.41
2018-05-18T03:32:46.986Z,100047.34
2018-05-18T03:35:15.934Z,100047.82
2018-05-18T03:37:44.935Z,100062.70
2018-05-18T03:40:13.973Z,100064.28
2018-05-18T03:42:42.923Z,100066.78
2018-05-18T03:45:11.942Z,100062.90
2018-05-18T03:47:40.977Z,100063.72
2018-05-18T03:50:12.760Z,100071.61
2018-05-18T03:52:45.606Z,100073.78
2018-05-18T03:55:15.006Z,100081.86
2018-05-18T03:57:43.990Z,100081.53
2018-05-18T04:00:19.746Z,100074.27
2018-05-18T04:02:59.608Z,100074.34
2018-05-18T04:05:39.971Z,100071.20
2018-05-18T04:08:19.846Z,100072.94
2018-05-18T04:10:48.853Z,100070.28
2018-05-18T04:13:17.809Z,100079.02
2018-05-18T04:15:46.735Z,100078.93
2018-05-18T04:18:15.739Z,100096.83
2018-05-18T04:20:45.053Z,100085.86
2018-05-18T04:23:14.359Z,100083.55
2018-05-18T04:25:49.015Z,100089.34
2018-05-18T04:28:18.005Z,100094.83
2018-05-18T04:30:47.034Z,100096.56
2018-05-18T04:33:16.034Z,100091.52
2018-05-18T04:35:45.341Z,100092.42
2018-05-18T04:38:14.579Z,100088.86
2018-05-18T04:40:44.147Z,100092.18
2018-05-18T04:43:13.437Z,100100.97
2018-05-18T04:45:42.480Z,100096.83
2018-05-18T04:48:11.863Z,100094.08
2018-05-18T04:50:40.835Z,100108.80
2018-05-18T04:53:09.910Z,100107.47
2018-05-18T04:55:38.859Z,100112.13
2018-05-18T04:58:07.807Z,100113.12
2018-05-18T05:00:37.295Z,100120.67
2018-05-18T05:03:06.299Z,100127.64
2018-05-18T05:05:37.034Z,100132.45
2018-05-18T05:08:08.574Z,100135.20
2018-05-18T05:10:40.267Z,100141.27
2018-05-18T05:13:09.346Z,100144.08
2018-05-18T05:15:39.863Z,100145.92
2018-05-18T05:18:10.565Z,100146.25
2018-05-18T05:20:41.603Z,100154.47
2018-05-18T05:23:12.912Z,100148.91
2018-05-18T05:25:42.950Z,100158.55
2018-05-18T05:28:18.919Z,100152.99
2018-05-18T05:30:47.888Z,100162.20
2018-05-18T05:33:16.907Z,100149.73
2018-05-18T05:35:47.727Z,100152.66
2018-05-18T05:38:17.407Z,100149.16
2018-05-18T05:40:49.157Z,100155.32
2018-05-18T05:43:19.748Z,100158.04
2018-05-18T05:45:50.420Z,100151.91
2018-05-18T05:48:21.207Z,100167.53
2018-05-18T05:50:51.953Z,100163.55
2018-05-18T05:53:22.698Z,100168.20
2018-05-18T05:55:53.592Z,100173.66
2018-05-18T05:58:24.766Z,100170.01
2018-05-18T06:00:55.652Z,100178.50
2018-05-18T06:03:26.644Z,100178.41
2018-05-18T06:05:57.173Z,100171.19
2018-05-18T06:08:28.023Z,100174.75
2018-05-18T06:10:59.529Z,100181.64
2018-05-18T06:13:30.312Z,100179.98
2018-05-18T06:16:01.049Z,100180.59
2018-05-18T06:18:31.614Z,100184.91
2018-05-18T06:21:02.668Z,100180.97
2018-05-18T06:23:34.896Z,100187.89
2018-05-18T06:26:04.971Z,100191.94
2018-05-18T06:28:35.606Z,100189.14
2018-05-18T06:31:06.384Z,100189.80
2018-05-18T06:33:37.641Z,100194.45
2018-05-18T06:36:08.681Z,100197.69
2018-05-18T06:38:40.462Z,100194.78
2018-05-18T06:41:11.222Z,100208.23
2018-05-18T06:43:40.420Z,100198.77
2018-05-18T06:46:12.022Z,100204.00
2018-05-18T06:48:42.654Z,100212.73
2018-05-18T06:51:13.351Z,100203.76
2018-05-18T06:53:44.538Z,100211.89
2018-05-18T06:56:15.182Z,100216.73
2018-05-18T06:58:46.377Z,100221.95
2018-05-18T07:01:17.266Z,100225.12
2018-05-18T07:03:47.958Z,100221.80
2018-05-18T07:06:18.832Z,100233.82
2018-05-18T07:08:49.674Z,100243.31
2018-05-18T07:11:20.659Z,100243.31
2018-05-18T07:16:35.837Z,100244.08
2018-05-18T07:19:05.656Z,100240.66
2018-05-18T07:21:34.616Z,100233.50
2018-05-18T07:24:03.717Z,100247.13
2018-05-18T07:26:32.662Z,100250.97
2018-05-18T07:29:01.711Z,100257.19
2018-05-18T07:31:30.751Z,100256.04
2018-05-18T07:33:59.726Z,100251.20
2018-05-18T07:36:28.774Z,100255.38
2018-05-18T07:38:59.570Z,100259.09
2018-05-18T07:41:30.554Z,100259.28
2018-05-18T07:44:01.632Z,100259.71
2018-05-18T07:46:32.579Z,100260.61
2018-05-18T07:49:03.201Z,100262.70
2018-05-18T07:51:33.986Z,100254.12
2018-05-18T07:54:04.684Z,100261.75
2018-05-18T07:56:35.507Z,100263.70
2018-05-18T07:59:06.670Z,100264.86
2018-05-18T08:01:37.165Z,100270.45
2018-05-18T08:04:08.002Z,100267.61
2018-05-18T08:06:38.666Z,100272.02
2018-05-18T08:09:09.686Z,100286.05
2018-05-18T08:11:40.571Z,100283.81
2018-05-18T08:14:11.651Z,100281.82
2018-05-18T08:16:42.610Z,100275.69
2018-05-18T08:19:13.756Z,100298.07
2018-05-18T08:21:44.503Z,100291.00
2018-05-18T08:24:15.567Z,100291.87
2018-05-18T08:26:45.944Z,100281.88
2018-05-18T08:29:27.479Z,100305.14
2018-05-18T08:31:56.433Z,100291.69
2018-05-18T08:34:25.496Z,100290.98
2018-05-18T08:36:54.958Z,100292.92
2018-05-18T08:39:23.967Z,100292.86
2018-05-18T08:41:52.949Z,100292.56
2018-05-18T08:44:22.011Z,100295.31
2018-05-18T08:46:52.958Z,100295.91
2018-05-18T08:49:23.694Z,100305.28
2018-05-18T08:51:55.502Z,100301.14
2018-05-18T08:54:26.294Z,100305.61
2018-05-18T08:56:56.981Z,100299.37
2018-05-18T08:59:27.683Z,100304.47
2018-05-18T09:01:58.586Z,100310.12
2018-05-18T09:04:29.140Z,100303.23
2018-05-18T09:06:59.654Z,100301.56
2018-05-18T09:09:31.460Z,100307.20
2018-05-18T09:12:02.213Z,100313.24
2018-05-18T09:14:33.162Z,100306.99
2018-05-18T09:17:03.727Z,100313.22
2018-05-18T09:19:34.747Z,100302.53
2018-05-18T09:22:06.571Z,100301.87
2018-05-18T09:24:37.317Z,100303.35
2018-05-18T09:27:08.085Z,100313.97
2018-05-18T09:29:38.662Z,100309.62
2018-05-18T09:32:10.243Z,100317.59
2018-05-18T09:34:41.132Z,100312.56
2018-05-18T09:37:13.842Z,100320.48
2018-05-18T09:39:42.939Z,100311.37
2018-05-18T09:42:12.954Z,100315.61
2018-05-18T09:44:42.961Z,100313.77
2018-05-18T09:47:13.766Z,100314.11
2018-05-18T09:49:44.347Z,100324.00
2018-05-18T09:52:15.246Z,100329.84
2018-05-18T09:54:47.059Z,100324.69
2018-05-18T09:57:16.942Z,100328.91
2018-05-18T09:59:47.812Z,100326.28
2018-05-18T10:02:18.298Z,100329.95
2018-05-18T10:04:49.098Z,100330.52
2018-05-18T10:07:19.709Z,100337.70
2018-05-18T10:09:50.621Z,100332.17
2018-05-18T10:12:21.704Z,100340.05
2018-05-18T10:14:53.582Z,100334.05
2018-05-18T10:17:24.162Z,100336.16
2018-05-18T10:19:54.720Z,100331.28
2018-05-18T10:22:25.545Z,100341.00
2018-05-18T10:24:56.607Z,100350.92
2018-05-18T10:27:28.021Z,100343.20
2018-05-18T10:29:58.715Z,100344.97
2018-05-18T10:32:29.623Z,100346.47
2018-05-18T10:35:00.574Z,100353.58
2018-05-18T10:37:31.252Z,100355.24
2018-05-18T10:40:02.061Z,100344.82
2018-05-18T10:42:32.666Z,100353.13
2018-05-18T10:45:03.228Z,100340.44
2018-05-18T10:47:34.001Z,100345.14
2018-05-18T10:50:04.908Z,100353.38
2018-05-18T10:52:35.339Z,100346.34
2018-05-18T10:55:04.420Z,100344.81
2018-05-18T10:57:35.095Z,100348.87
2018-05-18T11:00:09.316Z,100336.66
2018-05-18T11:02:38.954Z,100338.06
2018-05-18T11:05:09.699Z,100335.75
2018-05-18T11:07:40.573Z,100335.16
2018-05-18T11:10:11.630Z,100340.70
2018-05-18T11:12:42.642Z,100344.56
2018-05-18T11:15:14.538Z,100337.45
2018-05-18T11:17:45.476Z,100342.00
2018-05-18T11:20:15.218Z,100346.80
2018-05-18T11:22:45.934Z,100345.63
2018-05-18T11:25:16.660Z,100356.18
2018-05-18T11:27:47.566Z,100348.59
2018-05-18T11:30:18.610Z,100348.06
2018-05-18T11:32:49.563Z,100349.69
2018-05-18T11:35:20.571Z,100350.92
2018-05-18T11:37:51.551Z,100346.02
2018-05-18T11:40:22.555Z,100347.58
2018-05-18T11:42:53.561Z,100351.13
2018-05-18T11:45:24.629Z,100351.09
2018-05-18T11:47:55.706Z,100347.97
2018-05-18T11:50:26.594Z,100359.25
2018-05-18T11:52:57.515Z,100356.25
2018-05-18T11:55:28.717Z,100353.85
2018-05-18T11:57:59.522Z,100353.47
2018-05-18T12:00:30.677Z,100348.77
2018-05-18T12:03:01.265Z,100353.20
2018-05-18T12:05:32.055Z,100350.53
2018-05-18T12:08:02.675Z,100351.94
2018-05-18T12:10:33.754Z,100360.37
2018-05-18T12:13:06.577Z,100358.42
2018-05-18T12:15:36.311Z,100352.42
2018-05-18T12:18:06.675Z,100358.53
2018-05-18T12:20:37.249Z,100359.52
2018-05-18T12:23:07.930Z,100366.97
2018-05-18T12:25:38.559Z,100364.50
2018-05-18T12:28:09.474Z,100370.64
2018-05-18T12:30:40.534Z,100363.69
2018-05-18T12:33:11.544Z,100365.18
2018-05-18T12:35:42.668Z,100369.41
2018-05-18T12:38:13.857Z,100364.75
2018-05-18T12:40:43.985Z,100368.95
2018-05-18T12:43:14.573Z,100372.69
2018-05-18T12:45:45.530Z,100367.72
2018-05-18T12:48:16.631Z,100380.98
2018-05-18T12:50:47.610Z,100372.70
2018-05-18T12:53:18.618Z,100364.80
2018-05-18T12:55:49.663Z,100362.08
2018-05-18T12:58:20.578Z,100363.95
2018-05-18T13:00:52.034Z,100366.39
2018-05-18T13:03:22.629Z,100363.72
2018-05-18T13:05:53.826Z,100353.02
2018-05-18T13:08:24.575Z,100361.39
2018-05-18T13:10:55.559Z,100356.19
2018-05-18T13:13:26.588Z,100359.80
2018-05-18T13:15:59.059Z,100356.34
2018-05-18T13:18:29.062Z,100353.64
2018-05-18T13:20:59.723Z,100356.71
2018-05-18T13:23:30.515Z,100353.11
2018-05-18T13:26:01.461Z,100348.24
2018-05-18T13:28:32.614Z,100345.80
2018-05-18T13:31:03.698Z,100351.66
2018-05-18T13:33:34.728Z,100345.80
2018-05-18T13:36:05.780Z,100341.75
2018-05-18T13:38:36.354Z,100340.41
2018-05-18T13:41:06.942Z,100337.62
2018-05-18T13:43:37.626Z,100337.80
2018-05-18T13:46:08.756Z,100333.60
2018-05-18T13:48:39.541Z,100340.77
2018-05-18T13:51:10.680Z,100335.19
2018-05-18T13:53:41.537Z,100332.72
2018-05-18T13:56:12.646Z,100343.90
2018-05-18T13:58:43.673Z,100343.02
2018-05-18T14:01:14.647Z,100335.67
2018-05-18T14:03:45.249Z,100329.53
2018-05-18T14:06:16.042Z,100335.47
2018-05-18T14:08:46.751Z,100331.77
2018-05-18T14:11:17.255Z,100324.78
2018-05-18T14:13:47.786Z,100319.44
2018-05-18T14:16:19.526Z,100322.34
2018-05-18T14:18:51.542Z,100327.22
2018-05-18T14:21:21.328Z,100322.42
2018-05-18T14:23:51.713Z,100322.42
2018-05-18T14:26:23.386Z,100321.53
2018-05-18T14:28:53.261Z,100327.42
2018-05-18T14:31:23.849Z,100334.72
2018-05-18T14:33:54.738Z,100336.53
2018-05-18T14:36:25.539Z,100335.73
2018-05-18T14:38:56.239Z,100331.27
2018-05-18T14:41:27.241Z,100337.20
2018-05-18T14:43:58.039Z,100338.40
2018-05-18T14:46:28.722Z,100338.85
2018-05-18T14:48:59.271Z,100344.39
2018-05-18T14:51:30.034Z,100343.48
2018-05-18T14:54:00.644Z,100349.09
2018-05-18T14:56:31.770Z,100333.64
2018-05-18T14:59:02.755Z,100338.93
2018-05-18T15:01:33.725Z,100334.00
2018-05-18T15:04:05.150Z,100334.77
2018-05-18T15:06:35.053Z,100341.30
2018-05-18T15:09:05.714Z,100339.72
2018-05-18T15:11:36.341Z,100332.24
2018-05-18T15:14:07.875Z,100332.36
2018-05-18T15:16:38.786Z,100329.70
2018-05-18T15:19:09.206Z,100326.33
2018-05-18T15:21:39.849Z,100312.75
2018-05-18T15:24:08.865Z,100325.25
2018-05-18T15:26:40.422Z,100326.56
2018-05-18T15:29:11.577Z,100339.82
2018-05-18T15:31:42.528Z,100329.83
2018-05-18T15:34:13.502Z,100334.73
2018-05-18T15:36:44.545Z,100331.41
2018-05-18T15:39:16.337Z,100333.41
2018-05-18T15:41:47.094Z,100327.20
2018-05-18T15:44:17.059Z,100335.64
2018-05-18T15:46:48.719Z,100335.49
2018-05-18T15:49:19.241Z,100331.38
2018-05-18T15:51:53.566Z,100331.14
2018-05-18T15:54:23.095Z,100328.44
2018-05-18T15:56:52.083Z,100329.54
2018-05-18T15:59:21.744Z,100328.64
2018-05-18T16:01:52.630Z,100328.23
2018-05-18T16:04:21.687Z,100339.34
2018-05-18T16:06:52.958Z,100341.08
2018-05-18T16:09:23.810Z,100343.00
2018-05-18T16:11:55.582Z,100340.84
2018-05-18T16:14:26.261Z,100334.53
2018-05-18T16:16:55.265Z,100339.27
2018-05-18T16:19:26.457Z,100342.74
2018-05-18T16:21:57.355Z,100352.13
2018-05-18T16:24:28.223Z,100355.37
2018-05-18T16:26:59.216Z,100358.98
2018-05-18T16:29:30.127Z,100377.56
2018-05-18T16:31:59.139Z,100376.54
2018-05-18T16:34:28.118Z,100383.34
2018-05-18T16:36:57.107Z,100384.83
2018-05-18T16:39:26.144Z,100377.28
2018-05-18T16:41:55.399Z,100377.98
2018-05-18T16:44:24.357Z,100378.41
2018-05-18T16:46:53.877Z,100380.00
2018-05-18T16:49:22.869Z,100382.25
2018-05-18T16:51:51.870Z,100375.73
2018-05-18T16:54:23.736Z,100381.66
2018-05-18T16:56:52.705Z,100386.80
2018-05-18T16:59:21.707Z,100388.15
2018-05-18T17:01:50.751Z,100398.91
2018-05-18T17:04:19.788Z,100405.05
2018-05-18T17:06:48.735Z,100406.75
2018-05-18T17:09:17.743Z,100410.34
2018-05-18T17:11:46.794Z,100419.48
2018-05-18T17:14:16.864Z,100425.27
2018-05-18T17:16:45.938Z,100432.17
2018-05-18T17:19:14.914Z,100432.37
2018-05-18T17:21:43.911Z,100441.10
2018-05-18T17:24:13.018Z,100463.80
2018-05-18T17:26:42.006Z,100470.54
2018-05-18T17:29:10.978Z,100482.55
2018-05-18T17:31:40.078Z,100471.33
2018-05-18T17:34:09.058Z,100476.70
2018-05-18T17:36:38.395Z,100484.20
2018-05-18T17:39:07.724Z,100476.37
2018-05-18T17:41:36.830Z,100482.44
2018-05-18T17:44:05.963Z,100481.27
2018-05-18T17:46:34.980Z,100479.12
2018-05-18T17:49:03.988Z,100470.45
2018-05-18T17:51:32.968Z,100464.70
2018-05-18T17:54:02.030Z,100464.45
2018-05-18T17:56:31.103Z,100465.84
2018-05-18T17:59:00.338Z,100462.14
2018-05-18T18:01:29.563Z,100462.98
2018-05-18T18:03:58.510Z,100457.63
2018-05-18T18:06:28.414Z,100468.56
2018-05-18T18:08:57.806Z,100463.63
2018-05-18T18:11:26.792Z,100465.88
2018-05-18T18:13:55.791Z,100464.39
2018-05-18T18:16:24.861Z,100461.59
2018-05-18T18:18:55.396Z,100452.45
2018-05-18T18:21:24.452Z,100448.38
2018-05-18T18:23:53.304Z,100459.28
2018-05-18T18:26:27.218Z,100454.81
2018-05-18T18:28:56.518Z,100448.71
2018-05-18T18:31:25.846Z,100448.02
2018-05-18T18:33:54.989Z,100445.29
2018-05-18T18:36:24.286Z,100449.55
2018-05-18T18:38:53.482Z,100453.35
2018-05-18T18:41:22.282Z,100445.79
2018-05-18T18:43:51.492Z,100445.86
2018-05-18T18:46:20.593Z,100444.99
2018-05-18T18:48:49.552Z,100439.71
2018-05-18T18:51:18.544Z,100428.98
2018-05-18T18:53:47.698Z,100435.23
2018-05-18T18:56:16.732Z,100435.83
2018-05-18T18:58:45.739Z,100434.55
2018-05-18T19:01:14.999Z,100437.42
2018-05-18T19:03:44.277Z,100447.88
2018-05-18T19:06:13.796Z,100465.58
2018-05-18T19:08:42.801Z,100472.18
2018-05-18T19:11:11.806Z,100473.84
2018-05-18T19:13:40.758Z,100482.09
2018-05-18T19:16:10.051Z,100474.53
2018-05-18T19:18:40.140Z,100480.36
2018-05-18T19:21:09.566Z,100479.74
2018-05-18T19:23:38.545Z,100476.77
2018-05-18T19:26:07.662Z,100483.73
2018-05-18T19:28:37.512Z,100485.78
2018-05-18T19:31:06.487Z,100484.98
2018-05-18T19:33:35.652Z,100493.70
2018-05-18T19:36:04.649Z,100494.11
2018-05-18T19:38:33.728Z,100501.50
2018-05-18T19:41:03.138Z,100499.20
2018-05-18T19:43:32.488Z,100501.67
2018-05-18T19:46:01.513Z,100514.02
2018-05-18T19:48:30.603Z,100504.01
2018-05-18T19:50:59.869Z,100499.41
2018-05-18T19:53:29.272Z,100503.48
2018-05-18T19:55:59.565Z,100507.35
2018-05-18T19:58:28.603Z,100509.95
2018-05-18T20:00:57.628Z,100518.17
2018-05-18T20:03:26.719Z,100511.37
2018-05-18T20:05:56.068Z,100517.67
2018-05-18T20:08:25.131Z,100518.59
2018-05-18T20:10:54.851Z,100516.05
2018-05-18T20:13:23.864Z,100514.95
2018-05-18T20:15:52.917Z,100525.73
2018-05-18T20:18:23.730Z,100519.88
2018-05-18T20:20:54.285Z,100522.73
2018-05-18T20:23:25.048Z,100524.16
2018-05-18T20:25:55.761Z,100527.84
2018-05-18T20:28:26.635Z,100533.85
2018-05-18T20:30:57.203Z,100530.91
2018-05-18T20:33:27.788Z,100534.91
2018-05-18T20:35:58.724Z,100533.84
2018-05-18T20:38:29.716Z,100539.09
2018-05-18T20:41:00.576Z,100540.25
2018-05-18T20:43:31.725Z,100545.86
2018-05-18T20:46:02.524Z,100542.09
2018-05-18T20:48:33.674Z,100543.00
2018-05-18T20:51:04.314Z,100542.43
2018-05-18T20:53:35.073Z,100546.86
2018-05-18T20:56:05.696Z,100545.11
2018-05-18T20:58:37.116Z,100545.44
2018-05-18T21:01:11.696Z,100549.78
2018-05-18T21:03:41.268Z,100550.92
2018-05-18T21:06:10.358Z,100551.45
2018-05-18T21:08:41.060Z,100547.03
2018-05-18T21:11:11.061Z,100546.11
2018-05-18T21:13:41.618Z,100540.85
2018-05-18T21:16:12.695Z,100542.45
2018-05-18T21:18:48.721Z,100555.36
2018-05-18T21:21:17.765Z,100551.38
2018-05-18T21:23:47.456Z,100550.36
2018-05-18T21:26:17.230Z,100544.12
2018-05-18T21:28:47.728Z,100548.38
2018-05-18T21:31:18.618Z,100551.80
2018-05-18T21:33:49.306Z,100549.01
2018-05-18T21:36:27.203Z,100550.44
2018-05-18T21:38:56.179Z,100559.25
2018-05-18T21:41:25.176Z,100565.50
2018-05-18T21:43:54.695Z,100563.50
2018-05-18T21:46:23.395Z,100564.77
2018-05-18T21:48:54.040Z,100568.59
2018-05-18T21:51:24.859Z,100564.11
2018-05-18T21:53:55.291Z,100566.69
2018-05-18T21:56:26.048Z,100568.44
2018-05-18T21:58:56.663Z,100570.93
2018-05-18T22:01:27.804Z,100568.59
2018-05-18T22:04:01.267Z,100570.02
2018-05-18T22:06:31.452Z,100573.45
2018-05-18T22:09:01.478Z,100570.93
2018-05-18T22:11:32.234Z,100572.69
2018-05-18T22:14:02.811Z,100575.11
2018-05-18T22:16:34.462Z,100586.59
2018-05-18T22:19:05.157Z,100578.69
2018-05-18T22:21:35.279Z,100580.34
2018-05-18T22:24:06.406Z,100583.34
2018-05-18T22:26:38.409Z,100578.83
2018-05-18T22:29:07.755Z,100582.67
2018-05-18T22:31:38.544Z,100584.66
2018-05-18T22:34:09.223Z,100585.24
2018-05-18T22:36:40.695Z,100584.98
2018-05-18T22:39:11.688Z,100580.98
2018-05-18T22:41:41.464Z,100579.23
2018-05-18T22:44:12.210Z,100587.70
2018-05-18T22:46:43.096Z,100583.52
2018-05-18T22:49:13.695Z,100580.36
2018-05-18T22:51:46.505Z,100583.96
2018-05-18T22:54:16.024Z,100577.96
2018-05-18T22:56:45.949Z,100578.61
2018-05-18T22:59:16.454Z,100580.23
2018-05-18T23:01:46.145Z,100581.38
2018-05-18T23:04:16.797Z,100585.28
2018-05-18T23:06:50.539Z,100581.27
2018-05-18T23:09:19.666Z,100575.45
2018-05-18T23:11:50.270Z,100577.02
2018-05-18T23:14:20.765Z,100571.16
2018-05-18T23:16:51.580Z,100567.78
2018-05-18T23:19:22.714Z,100570.45
2018-05-18T23:21:53.763Z,100569.19
2018-05-18T23:24:25.307Z,100572.63
2018-05-18T23:26:56.001Z,100577.69
2018-05-18T23:29:26.747Z,100577.16
2018-05-18T23:31:57.593Z,100573.20
2018-05-18T23:34:28.318Z,100577.33
2018-05-18T23:36:59.006Z,100570.84
2018-05-18T23:39:29.665Z,100575.63
2018-05-18T23:42:00.575Z,100581.94
2018-05-18T23:44:31.644Z,100581.22
2018-05-18T23:47:02.127Z,100570.93
2018-05-18T23:49:32.722Z,100581.39
2018-05-18T23:52:04.631Z,100583.86
2018-05-18T23:54:33.649Z,100580.13
2018-05-18T23:57:04.308Z,100581.71
2018-05-18T23:59:35.098Z,100581.53
